Time;durP1;ratioP1;P1;durP2;ratioP2;P2;SDS_P1;SDS_P2;PMS_P1;PMS_P2;Temp;Humidity;BMP_temperature;BMP_pressure;BME280_temperature;BME280_humidity;BME280_pressure;Samples;Min_cycle;Max_cycle;Signal;HPM_P1;HPM_P2
2024/02/19 00:00:12;;;;;;;14.73;4.70;;;10.70;99.90;;;;;;5099823;28;20054;-70
2024/02/19 00:02:39;;;;;;;10.68;4.05;;;10.60;99.90;;;;;;5096477;28;20047;-69
2024/02/19 00:05:07;;;;;;;15.18;4.60;;;10.60;99.90;;;;;;5102163;28;20191;-70
2024/02/19 00:07:33;;;;;;;13.75;5.10;;;10.50;99.90;;;;;;5099946;28;20054;-71
2024/02/19 00:10:01;;;;;;;15.35;4.50;;;10.50;99.90;;;;;;5103269;28;20101;-71
2024/02/19 00:12:28;;;;;;;10.77;3.90;;;10.40;99.90;;;;;;5094465;28;20052;-70
2024/02/19 00:14:55;;;;;;;15.15;4.97;;;10.40;99.90;;;;;;5100142;28;20500;-70
2024/02/19 00:17:21;;;;;;;13.60;4.43;;;10.30;99.90;;;;;;5098928;28;20048;-70
2024/02/19 00:19:48;;;;;;;9.77;4.25;;;10.40;99.90;;;;;;5096792;28;20874;-71
2024/02/19 00:22:15;;;;;;;13.88;4.53;;;10.30;99.90;;;;;;5084999;28;20075;-71
2024/02/19 00:24:42;;;;;;;10.55;4.28;;;10.30;99.90;;;;;;5102363;28;20039;-69
2024/02/19 00:27:09;;;;;;;20.08;4.40;;;10.30;99.90;;;;;;5099702;28;20549;-70
2024/02/19 00:29:36;;;;;;;16.60;6.50;;;10.30;99.90;;;;;;5084634;28;20051;-70
2024/02/19 00:32:03;;;;;;;15.43;4.07;;;10.20;99.90;;;;;;5102776;28;20116;-69
2024/02/19 00:34:30;;;;;;;19.77;4.90;;;10.20;99.90;;;;;;5101238;28;20036;-70
2024/02/19 00:36:56;;;;;;;13.65;4.80;;;10.10;99.90;;;;;;5086143;28;20050;-69
2024/02/19 00:39:23;;;;;;;13.32;4.35;;;10.10;99.90;;;;;;5107282;28;20049;-70
2024/02/19 00:41:50;;;;;;;20.05;5.05;;;10.00;99.90;;;;;;5106748;28;20164;-70
2024/02/19 00:44:17;;;;;;;16.40;4.78;;;10.10;99.90;;;;;;5102553;28;20412;-69
2024/02/19 00:46:44;;;;;;;15.60;6.60;;;10.10;99.90;;;;;;5107605;28;20047;-70
2024/02/19 00:49:11;;;;;;;16.35;4.53;;;10.00;99.90;;;;;;5109559;28;20059;-70
2024/02/19 00:51:37;;;;;;;15.57;5.07;;;9.90;99.90;;;;;;5107071;28;20062;-69
2024/02/19 00:54:04;;;;;;;15.13;5.28;;;9.90;99.90;;;;;;5108462;28;20040;-70
2024/02/19 00:56:31;;;;;;;11.65;4.80;;;9.90;99.90;;;;;;5088953;28;20128;-70
2024/02/19 00:58:58;;;;;;;19.88;5.75;;;9.80;99.90;;;;;;5107525;28;20048;-68
2024/02/19 01:01:25;;;;;;;12.52;4.97;;;9.70;99.90;;;;;;5106388;28;20051;-70
2024/02/19 01:03:52;;;;;;;16.33;5.18;;;9.70;99.90;;;;;;5107966;28;20043;-70
2024/02/19 01:06:19;;;;;;;14.85;4.78;;;9.60;99.90;;;;;;5108845;28;20050;-70
2024/02/19 01:08:46;;;;;;;12.07;4.70;;;9.60;99.90;;;;;;5109921;28;20449;-72
2024/02/19 01:11:12;;;;;;;12.52;4.15;;;9.60;99.90;;;;;;5113994;28;20052;-70
2024/02/19 01:13:39;;;;;;;16.13;5.03;;;9.60;99.90;;;;;;5114342;28;20574;-70
2024/02/19 01:16:08;;;;;;;18.05;5.60;;;9.60;99.90;;;;;;5108437;28;20107;-69
2024/02/19 01:18:35;;;;;;;16.75;4.70;;;9.60;99.90;;;;;;5106746;28;20043;-70
2024/02/19 01:21:03;;;;;;;14.98;5.20;;;9.60;99.90;;;;;;5109417;28;20051;-70
2024/02/19 01:23:30;;;;;;;14.88;5.82;;;9.60;99.90;;;;;;5110017;28;20092;-70
2024/02/19 01:25:57;;;;;;;10.30;4.93;;;9.60;99.90;;;;;;5107059;28;20491;-69
2024/02/19 01:28:23;;;;;;;10.77;4.22;;;9.60;99.90;;;;;;5108149;28;20047;-69
2024/02/19 01:30:50;;;;;;;12.57;4.05;;;9.60;99.90;;;;;;5110166;28;20082;-69
2024/02/19 01:33:17;;;;;;;10.32;4.40;;;9.50;99.90;;;;;;5109379;28;20044;-70
2024/02/19 01:35:44;;;;;;;13.13;5.15;;;9.50;99.90;;;;;;5098235;28;20040;-69
2024/02/19 01:38:12;;;;;;;15.32;4.63;;;9.50;99.90;;;;;;5107563;28;20047;-70
2024/02/19 01:40:38;;;;;;;14.07;4.75;;;9.40;99.90;;;;;;5101260;28;20104;-71
2024/02/19 01:43:07;;;;;;;17.33;4.35;;;9.50;99.90;;;;;;5104968;28;20043;-71
2024/02/19 01:45:34;;;;;;;13.65;4.95;;;9.50;99.90;;;;;;5108021;28;20055;-71
2024/02/19 01:48:01;;;;;;;13.77;4.47;;;9.50;99.90;;;;;;5106820;28;20039;-71
2024/02/19 01:50:32;;;;;;;14.90;5.03;;;9.40;99.90;;;;;;5073140;28;20423;-71
2024/02/19 01:53:00;;;;;;;10.88;4.05;;;9.40;99.90;;;;;;5106273;28;20048;-71
2024/02/19 01:55:27;;;;;;;10.35;4.20;;;9.40;99.90;;;;;;5090209;28;20043;-71
2024/02/19 01:57:54;;;;;;;14.65;4.65;;;9.40;99.90;;;;;;5085758;28;20096;-70
2024/02/19 02:00:21;;;;;;;9.68;4.25;;;9.40;99.90;;;;;;5106536;28;20126;-68
2024/02/19 02:02:48;;;;;;;14.40;3.92;;;9.30;99.90;;;;;;5071137;28;20100;-70
2024/02/19 02:05:15;;;;;;;10.70;3.97;;;9.30;99.90;;;;;;5081902;28;20098;-69
2024/02/19 02:07:43;;;;;;;12.00;4.60;;;9.30;99.90;;;;;;5085742;28;20840;-72
2024/02/19 02:10:10;;;;;;;14.65;4.00;;;9.30;99.90;;;;;;5086314;28;20537;-70
2024/02/19 02:12:37;;;;;;;11.20;4.32;;;9.30;99.90;;;;;;5106286;28;20051;-70
2024/02/19 02:15:05;;;;;;;9.38;3.70;;;9.30;99.90;;;;;;5107177;28;20039;-69
2024/02/19 02:17:32;;;;;;;9.85;3.63;;;9.30;99.90;;;;;;5106765;28;20059;-69
2024/02/19 02:19:59;;;;;;;11.60;3.47;;;9.20;99.90;;;;;;5104452;28;20052;-71
2024/02/19 02:22:26;;;;;;;8.82;3.47;;;9.20;99.90;;;;;;5106811;28;20104;-71
2024/02/19 02:24:53;;;;;;;11.93;2.95;;;9.10;99.90;;;;;;5104145;28;20135;-70
2024/02/19 02:27:20;;;;;;;15.70;3.72;;;9.10;99.90;;;;;;5089318;28;20056;-70
2024/02/19 02:29:47;;;;;;;12.27;4.05;;;9.10;99.90;;;;;;5104007;28;20128;-70
2024/02/19 02:32:14;;;;;;;14.68;3.78;;;9.00;99.90;;;;;;5095808;28;20097;-70
2024/02/19 02:34:40;;;;;;;16.30;3.75;;;9.00;99.90;;;;;;5103653;28;20108;-69
2024/02/19 02:37:07;;;;;;;9.93;3.53;;;9.00;99.90;;;;;;5087468;28;20055;-70
2024/02/19 02:39:34;;;;;;;10.30;2.95;;;8.90;99.90;;;;;;5107328;28;20059;-71
2024/02/19 02:42:01;;;;;;;15.68;3.83;;;8.90;99.90;;;;;;5099262;28;20055;-70
2024/02/19 02:44:28;;;;;;;14.80;4.13;;;8.90;99.90;;;;;;5100211;28;20066;-70
2024/02/19 02:46:55;;;;;;;12.68;3.38;;;8.90;99.90;;;;;;5085941;28;20067;-70
2024/02/19 02:49:22;;;;;;;10.50;4.03;;;8.90;99.90;;;;;;5106907;28;20285;-70
2024/02/19 02:51:48;;;;;;;8.18;3.50;;;9.00;99.90;;;;;;5102700;28;20460;-69
2024/02/19 02:54:15;;;;;;;12.48;3.70;;;9.00;99.90;;;;;;5106442;28;20138;-70
2024/02/19 02:56:42;;;;;;;10.45;3.25;;;9.00;99.90;;;;;;5104903;28;20047;-70
2024/02/19 02:59:09;;;;;;;16.95;4.43;;;9.00;99.90;;;;;;5104710;28;20377;-69
2024/02/19 03:01:36;;;;;;;12.20;4.72;;;9.00;99.90;;;;;;5099504;28;20113;-70
2024/02/19 03:04:03;;;;;;;8.68;3.22;;;9.00;99.90;;;;;;5087824;28;20039;-70
2024/02/19 03:06:30;;;;;;;9.85;3.65;;;8.90;99.90;;;;;;5106447;28;20100;-70
2024/02/19 03:08:57;;;;;;;13.48;3.65;;;9.00;99.90;;;;;;5079119;28;20076;-70
2024/02/19 03:11:24;;;;;;;11.00;4.00;;;8.90;99.90;;;;;;5102667;28;20044;-71
2024/02/19 03:13:51;;;;;;;12.13;3.88;;;8.90;99.90;;;;;;5096837;28;20044;-71
2024/02/19 03:16:18;;;;;;;11.38;3.53;;;9.00;99.90;;;;;;5104281;28;20054;-70
2024/02/19 03:18:45;;;;;;;11.75;3.47;;;9.00;99.90;;;;;;5088823;28;20051;-70
2024/02/19 03:21:15;;;;;;;14.27;3.85;;;9.00;99.90;;;;;;5105409;28;20048;-70
2024/02/19 03:23:52;;;;;;;13.07;3.63;;;9.00;99.90;;;;;;5088483;28;20048;-70
2024/02/19 03:26:23;;;;;;;8.68;3.17;;;9.00;99.90;;;;;;5105148;28;20396;-69
2024/02/19 03:29:11;;;;;;;9.80;3.63;;;8.90;99.90;;;;;;5103450;28;20101;-70
2024/02/19 03:31:42;;;;;;;13.48;4.38;;;8.80;99.90;;;;;;5106152;28;20155;-69
2024/02/19 03:34:09;;;;;;;16.95;4.50;;;8.70;99.90;;;;;;5100345;28;20036;-70
2024/02/19 03:36:36;;;;;;;13.75;4.68;;;8.70;99.90;;;;;;5088158;28;20054;-70
2024/02/19 03:39:04;;;;;;;11.65;3.92;;;8.70;99.90;;;;;;5101146;28;20067;-69
2024/02/19 03:41:31;;;;;;;10.98;4.28;;;8.80;99.90;;;;;;5104292;28;20043;-70
2024/02/19 03:43:58;;;;;;;9.77;3.55;;;8.70;99.90;;;;;;5102446;28;20096;-69
2024/02/19 03:46:26;;;;;;;8.43;3.92;;;8.70;99.90;;;;;;5103355;28;20053;-70
2024/02/19 03:48:54;;;;;;;14.70;3.95;;;8.60;99.90;;;;;;5103987;28;20047;-70
2024/02/19 03:51:22;;;;;;;8.20;3.28;;;8.60;99.90;;;;;;5104249;28;20057;-70
2024/02/19 03:53:49;;;;;;;8.18;3.80;;;8.50;99.90;;;;;;5082181;28;20079;-69
2024/02/19 03:56:17;;;;;;;12.02;3.15;;;8.50;99.90;;;;;;5092675;28;20047;-70
2024/02/19 03:58:44;;;;;;;9.52;3.72;;;8.50;99.90;;;;;;5095212;28;20064;-70
2024/02/19 04:01:12;;;;;;;10.05;3.20;;;8.40;99.90;;;;;;5101803;28;20044;-69
2024/02/19 04:03:39;;;;;;;10.48;2.83;;;8.40;99.90;;;;;;5105595;28;20048;-70
2024/02/19 04:06:06;;;;;;;6.57;3.03;;;8.40;99.90;;;;;;5081311;28;20044;-70
2024/02/19 04:08:33;;;;;;;9.50;2.83;;;8.40;99.90;;;;;;5105070;28;20051;-70
2024/02/19 04:11:00;;;;;;;9.13;2.95;;;8.40;99.90;;;;;;5071105;28;20047;-70
2024/02/19 04:13:26;;;;;;;12.80;3.55;;;8.40;99.90;;;;;;5104953;28;20043;-69
2024/02/19 04:15:54;;;;;;;10.02;2.92;;;8.40;99.90;;;;;;5104361;28;20050;-70
2024/02/19 04:18:22;;;;;;;9.60;2.60;;;8.50;99.90;;;;;;5109936;28;20090;-68
2024/02/19 04:20:49;;;;;;;11.40;3.13;;;8.40;99.90;;;;;;5091651;28;20047;-69
2024/02/19 04:23:15;;;;;;;14.10;5.07;;;8.40;99.90;;;;;;5106265;28;20105;-70
2024/02/19 04:25:42;;;;;;;10.13;3.30;;;8.40;99.90;;;;;;5108074;28;20044;-69
2024/02/19 04:28:09;;;;;;;8.25;3.20;;;8.40;99.90;;;;;;5108081;28;20632;-69
2024/02/19 04:30:36;;;;;;;7.47;2.95;;;8.50;99.90;;;;;;5107994;28;20036;-70
2024/02/19 04:33:04;;;;;;;6.60;3.42;;;8.50;99.90;;;;;;5099842;28;20067;-68
2024/02/19 04:35:31;;;;;;;11.70;2.85;;;8.40;99.90;;;;;;5110959;28;20046;-69
2024/02/19 04:37:58;;;;;;;10.68;3.13;;;8.40;99.90;;;;;;5091857;28;20039;-69
2024/02/19 04:40:25;;;;;;;10.63;3.47;;;8.30;99.90;;;;;;5113727;28;20096;-69
2024/02/19 04:42:52;;;;;;;9.27;3.25;;;8.20;99.90;;;;;;5113244;28;20051;-70
2024/02/19 04:45:18;;;;;;;8.60;3.17;;;8.20;99.90;;;;;;5113648;28;20050;-70
2024/02/19 04:47:45;;;;;;;12.93;3.20;;;8.20;99.90;;;;;;5106100;28;20079;-70
2024/02/19 04:50:12;;;;;;;11.52;3.60;;;8.30;99.90;;;;;;5106797;28;20618;-70
2024/02/19 04:52:39;;;;;;;8.40;3.83;;;8.30;99.90;;;;;;5098514;28;20077;-70
2024/02/19 04:55:06;;;;;;;9.85;3.97;;;8.30;99.90;;;;;;5091219;28;20039;-70
2024/02/19 04:57:33;;;;;;;6.38;3.55;;;8.30;99.90;;;;;;5104352;28;20081;-71
2024/02/19 05:00:00;;;;;;;15.75;4.30;;;8.20;99.90;;;;;;5109729;28;20314;-69
2024/02/19 05:02:27;;;;;;;10.35;3.30;;;8.20;99.90;;;;;;5109579;28;20044;-70
2024/02/19 05:04:54;;;;;;;10.43;4.30;;;8.20;99.90;;;;;;5103396;28;20400;-69
2024/02/19 05:07:21;;;;;;;8.65;3.63;;;8.10;99.90;;;;;;5108401;28;20040;-70
2024/02/19 05:09:48;;;;;;;11.05;3.78;;;8.00;99.90;;;;;;5107709;28;20574;-69
2024/02/19 05:12:15;;;;;;;11.95;4.63;;;8.10;99.90;;;;;;5108590;28;20442;-69
2024/02/19 05:14:42;;;;;;;11.52;4.53;;;8.10;99.90;;;;;;5106705;28;20055;-70
2024/02/19 05:17:09;;;;;;;10.15;3.40;;;8.20;99.90;;;;;;5077728;28;20077;-70
2024/02/19 05:19:36;;;;;;;7.00;3.47;;;8.20;99.90;;;;;;5103170;28;20393;-70
2024/02/19 05:22:03;;;;;;;13.18;4.85;;;8.20;99.90;;;;;;5108952;28;20047;-69
2024/02/19 05:24:31;;;;;;;15.55;4.68;;;8.20;99.90;;;;;;5108121;28;20051;-70
2024/02/19 05:26:57;;;;;;;8.68;3.38;;;8.30;99.90;;;;;;5106771;28;20048;-70
2024/02/19 05:29:25;;;;;;;8.68;3.75;;;8.30;99.90;;;;;;5104638;28;20059;-70
2024/02/19 05:31:51;;;;;;;6.53;3.28;;;8.30;99.90;;;;;;5108996;28;20043;-70
2024/02/19 05:34:19;;;;;;;9.23;4.57;;;8.40;99.90;;;;;;5104427;28;20043;-70
2024/02/19 05:36:46;;;;;;;7.45;4.28;;;8.40;99.90;;;;;;5107769;28;20048;-69
2024/02/19 05:39:14;;;;;;;8.40;4.28;;;8.40;99.90;;;;;;5100253;28;20126;-70
2024/02/19 05:41:41;;;;;;;11.40;4.07;;;8.40;99.90;;;;;;5107499;28;20040;-70
2024/02/19 05:44:09;;;;;;;9.82;4.50;;;8.40;99.90;;;;;;5108666;28;20163;-70
2024/02/19 05:46:36;;;;;;;8.30;3.70;;;8.50;99.90;;;;;;5106325;28;20089;-70
2024/02/19 05:49:03;;;;;;;12.57;5.50;;;8.50;99.90;;;;;;5086802;28;20209;-70
2024/02/19 05:51:30;;;;;;;10.95;5.45;;;8.60;99.90;;;;;;5104292;28;20093;-69
2024/02/19 05:53:57;;;;;;;8.07;4.80;;;8.60;99.90;;;;;;5104705;28;20473;-71
2024/02/19 05:56:26;;;;;;;11.85;5.38;;;8.70;99.90;;;;;;5097632;28;20047;-70
2024/02/19 05:58:52;;;;;;;9.68;4.63;;;8.70;99.90;;;;;;5088433;28;20047;-70
2024/02/19 06:01:19;;;;;;;14.48;5.43;;;8.70;99.90;;;;;;5102708;28;20048;-72
2024/02/19 06:03:46;;;;;;;10.43;4.85;;;8.70;99.90;;;;;;5099145;28;20427;-70
2024/02/19 06:06:13;;;;;;;12.63;5.25;;;8.80;99.90;;;;;;5106768;28;20062;-70
2024/02/19 06:08:40;;;;;;;13.05;5.15;;;8.80;99.90;;;;;;5107211;28;20055;-70
2024/02/19 06:11:08;;;;;;;11.45;4.95;;;8.80;99.90;;;;;;5105017;28;20051;-71
2024/02/19 06:13:34;;;;;;;14.10;5.40;;;8.90;99.90;;;;;;5105044;28;20504;-69
2024/02/19 06:16:01;;;;;;;17.67;6.13;;;8.90;99.90;;;;;;5099370;28;20063;-70
2024/02/19 06:18:28;;;;;;;10.13;4.75;;;9.00;99.90;;;;;;5094037;28;20044;-68
2024/02/19 06:20:55;;;;;;;19.15;4.72;;;9.00;99.90;;;;;;5087724;28;20147;-69
2024/02/19 06:23:23;;;;;;;10.95;4.30;;;9.10;99.90;;;;;;5101413;28;20088;-68
2024/02/19 06:25:50;;;;;;;13.13;4.68;;;9.10;99.90;;;;;;5098228;28;20416;-69
2024/02/19 06:28:20;;;;;;;16.17;4.22;;;9.20;99.90;;;;;;5101693;28;20044;-70
2024/02/19 06:30:47;;;;;;;19.67;6.03;;;9.20;99.90;;;;;;5102355;28;20048;-70
2024/02/19 06:33:15;;;;;;;12.95;4.03;;;9.20;99.90;;;;;;5104727;28;20092;-70
2024/02/19 06:35:42;;;;;;;13.30;4.60;;;9.30;99.90;;;;;;5107310;28;20187;-70
2024/02/19 06:38:09;;;;;;;12.57;3.95;;;9.30;99.90;;;;;;5086769;28;20108;-69
2024/02/19 06:40:36;;;;;;;16.95;3.83;;;9.40;99.90;;;;;;5107597;28;20100;-70
2024/02/19 06:43:03;;;;;;;8.98;3.67;;;9.40;99.90;;;;;;5104362;28;20416;-69
2024/02/19 06:45:30;;;;;;;9.10;3.22;;;9.40;99.90;;;;;;5081551;28;20047;-70
2024/02/19 06:47:56;;;;;;;13.73;2.97;;;9.40;99.90;;;;;;5106233;28;20854;-70
2024/02/19 06:50:24;;;;;;;11.00;2.70;;;9.40;99.90;;;;;;5102647;28;20129;-70
2024/02/19 06:52:50;;;;;;;17.45;3.47;;;9.40;99.90;;;;;;5103736;28;20044;-70
2024/02/19 06:55:17;;;;;;;9.75;3.28;;;9.40;99.90;;;;;;5106611;28;20047;-71
2024/02/19 06:57:44;;;;;;;14.82;3.33;;;9.50;99.90;;;;;;5103905;28;20086;-69
2024/02/19 07:00:12;;;;;;;12.60;3.25;;;9.50;99.90;;;;;;5105560;28;20096;-69
2024/02/19 07:02:39;;;;;;;13.27;3.20;;;9.50;99.90;;;;;;5083537;28;20092;-69
2024/02/19 07:05:06;;;;;;;7.70;2.95;;;9.50;99.90;;;;;;4723845;28;10000337;-69
2024/02/19 07:07:36;;;;;;;8.65;2.88;;;9.50;99.90;;;;;;5099773;28;20055;-69
2024/02/19 07:10:03;;;;;;;13.23;3.55;;;9.50;99.90;;;;;;5092950;28;20108;-64
2024/02/19 07:12:30;;;;;;;13.10;2.95;;;9.50;99.90;;;;;;5068479;28;20069;-69
2024/02/19 07:14:57;;;;;;;7.28;2.63;;;9.50;99.90;;;;;;5091203;28;20197;-70
2024/02/19 07:17:26;;;;;;;10.73;2.40;;;9.50;99.90;;;;;;5105060;28;20040;-70
2024/02/19 07:19:53;;;;;;;8.90;2.50;;;9.50;99.90;;;;;;5097072;28;20428;-72
2024/02/19 07:22:20;;;;;;;10.38;4.13;;;9.50;99.90;;;;;;5102218;28;20413;-69
2024/02/19 07:24:47;;;;;;;9.38;2.55;;;9.50;99.90;;;;;;5102950;28;20159;-69
2024/02/19 07:27:14;;;;;;;10.57;2.35;;;9.50;99.90;;;;;;5095336;28;20044;-69
2024/02/19 07:29:41;;;;;;;10.02;3.05;;;9.50;99.90;;;;;;5102967;28;20488;-69
2024/02/19 07:32:08;;;;;;;11.80;2.42;;;9.50;99.90;;;;;;5098311;28;20141;-70
2024/02/19 07:34:35;;;;;;;10.85;2.45;;;9.50;99.90;;;;;;5095670;28;20408;-71
2024/02/19 07:37:04;;;;;;;6.65;2.28;;;9.50;99.90;;;;;;5084450;28;20416;-69
2024/02/19 07:39:31;;;;;;;8.30;2.72;;;9.40;99.90;;;;;;5096393;28;20241;-71
2024/02/19 07:41:58;;;;;;;12.75;2.33;;;9.50;99.90;;;;;;5090765;28;20063;-71
2024/02/19 07:44:25;;;;;;;10.95;2.70;;;9.50;99.90;;;;;;5079115;28;20047;-71
2024/02/19 07:46:52;;;;;;;11.68;2.80;;;9.50;99.90;;;;;;5096306;28;20471;-71
2024/02/19 07:49:19;;;;;;;7.50;2.42;;;9.50;99.90;;;;;;5088140;28;20044;-71
2024/02/19 07:51:46;;;;;;;5.75;1.70;;;9.50;99.90;;;;;;5076073;28;20112;-70
2024/02/19 07:54:13;;;;;;;9.85;3.40;;;9.40;99.90;;;;;;5096412;28;20142;-71
2024/02/19 07:56:40;;;;;;;6.28;2.38;;;9.40;99.90;;;;;;5093397;28;20245;-70
2024/02/19 07:59:07;;;;;;;18.45;2.42;;;9.50;99.90;;;;;;5100321;28;20177;-71
2024/02/19 08:01:34;;;;;;;8.52;2.63;;;9.50;99.90;;;;;;5083446;28;20055;-71
2024/02/19 08:04:01;;;;;;;13.30;2.45;;;9.50;99.90;;;;;;5094282;28;20407;-71
2024/02/19 08:06:29;;;;;;;10.30;2.25;;;9.60;99.90;;;;;;5100446;28;20128;-70
2024/02/19 08:08:56;;;;;;;10.98;2.42;;;9.60;99.90;;;;;;5098710;28;20130;-69
2024/02/19 08:11:23;;;;;;;11.85;2.03;;;9.60;99.90;;;;;;5084441;28;20085;-69
2024/02/19 08:13:51;;;;;;;16.98;2.58;;;9.70;99.90;;;;;;5102865;28;20698;-69
2024/02/19 08:16:18;;;;;;;9.00;2.60;;;9.70;99.90;;;;;;5084606;28;20059;-70
2024/02/19 08:18:45;;;;;;;6.43;1.63;;;9.80;99.90;;;;;;5096393;28;20464;-69
2024/02/19 08:21:13;;;;;;;11.25;3.15;;;9.80;99.90;;;;;;5098895;28;20165;-69
2024/02/19 08:23:39;;;;;;;18.27;3.42;;;9.80;99.90;;;;;;5076985;28;20044;-70
2024/02/19 08:26:06;;;;;;;10.52;2.33;;;9.90;99.90;;;;;;5067876;28;20039;-70
2024/02/19 08:28:33;;;;;;;12.25;2.45;;;10.00;99.90;;;;;;5074610;28;20075;-71
2024/02/19 08:31:00;;;;;;;11.45;2.35;;;10.00;99.90;;;;;;5087746;28;20737;-72
2024/02/19 08:33:27;;;;;;;11.95;1.73;;;10.00;99.90;;;;;;5094258;28;20127;-69
2024/02/19 08:35:54;;;;;;;11.82;2.30;;;10.00;99.90;;;;;;5043645;28;20056;-71
2024/02/19 08:38:21;;;;;;;15.48;2.17;;;10.10;99.90;;;;;;5099842;28;20105;-70
2024/02/19 08:40:48;;;;;;;7.05;1.77;;;10.10;99.90;;;;;;5101496;28;20128;-70
2024/02/19 08:43:15;;;;;;;13.02;2.40;;;10.10;99.90;;;;;;5080212;28;20679;-69
2024/02/19 08:45:42;;;;;;;19.75;2.20;;;10.10;99.90;;;;;;5101336;28;20054;-74
2024/02/19 08:48:09;;;;;;;15.05;2.65;;;10.10;99.90;;;;;;5100450;28;20484;-73
2024/02/19 08:50:36;;;;;;;19.77;2.60;;;10.10;99.90;;;;;;5101870;28;20579;-72
2024/02/19 08:53:03;;;;;;;12.40;1.52;;;10.20;99.90;;;;;;5098185;28;20361;-74
2024/02/19 08:55:34;;;;;;;9.77;2.58;;;10.10;99.90;;;;;;5098659;28;20135;-73
2024/02/19 08:58:01;;;;;;;14.23;4.00;;;10.10;99.90;;;;;;5101701;28;20143;-73
2024/02/19 09:00:29;;;;;;;12.80;2.22;;;10.10;99.90;;;;;;5099276;28;20040;-71
2024/02/19 09:02:59;;;;;;;13.13;1.92;;;10.10;99.90;;;;;;5106031;28;20055;-73
2024/02/19 09:05:27;;;;;;;18.80;3.75;;;10.10;99.90;;;;;;5099212;28;20044;-73
2024/02/19 09:07:56;;;;;;;15.68;2.67;;;10.20;99.90;;;;;;5103999;28;20145;-71
2024/02/19 09:10:23;;;;;;;11.80;2.35;;;10.20;99.90;;;;;;5082109;28;20402;-71
2024/02/19 09:12:50;;;;;;;15.27;2.72;;;10.20;99.90;;;;;;5105332;28;20047;-70
2024/02/19 09:15:19;;;;;;;13.85;2.38;;;10.20;99.90;;;;;;5105322;28;20064;-70
2024/02/19 09:17:46;;;;;;;12.43;2.90;;;10.20;99.90;;;;;;5100902;28;20096;-71
2024/02/19 09:20:13;;;;;;;18.33;2.88;;;10.30;99.90;;;;;;5101281;28;20443;-71
2024/02/19 09:22:43;;;;;;;15.45;2.78;;;10.20;99.90;;;;;;5102152;28;20046;-71
2024/02/19 09:25:09;;;;;;;18.55;3.42;;;10.20;99.90;;;;;;5089153;28;20434;-70
2024/02/19 09:27:36;;;;;;;21.00;4.13;;;10.20;99.90;;;;;;5101026;28;20043;-71
2024/02/19 09:30:04;;;;;;;16.80;2.40;;;10.20;99.90;;;;;;5099835;28;20075;-71
2024/02/19 09:32:30;;;;;;;12.70;2.58;;;10.20;99.90;;;;;;5104016;28;20070;-71
2024/02/19 09:34:57;;;;;;;18.55;2.85;;;10.20;99.90;;;;;;5095412;28;20147;-72
2024/02/19 09:37:25;;;;;;;16.88;2.80;;;10.20;99.90;;;;;;5097108;28;20048;-71
2024/02/19 09:39:58;;;;;;;16.15;2.53;;;10.30;99.90;;;;;;5101108;28;20143;-71
2024/02/19 09:42:26;;;;;;;17.10;2.40;;;10.30;99.90;;;;;;5106114;28;20047;-71
2024/02/19 09:44:53;;;;;;;22.90;2.50;;;10.30;99.90;;;;;;5104502;28;20048;-71
2024/02/19 09:47:20;;;;;;;14.45;2.22;;;10.20;99.90;;;;;;5090103;28;20048;-71
2024/02/19 09:49:48;;;;;;;21.05;3.50;;;10.20;99.90;;;;;;5085399;28;20043;-73
2024/02/19 09:52:22;;;;;;;25.52;3.35;;;10.20;99.90;;;;;;5106915;28;20085;-70
2024/02/19 09:54:54;;;;;;;10.02;2.10;;;10.30;99.90;;;;;;5103032;28;20146;-71
2024/02/19 09:57:22;;;;;;;10.43;2.83;;;10.30;99.90;;;;;;5088356;28;20059;-71
2024/02/19 09:59:48;;;;;;;19.33;4.30;;;10.40;99.90;;;;;;5106932;28;20555;-71
2024/02/19 10:02:19;;;;;;;21.23;3.10;;;10.40;99.90;;;;;;5099802;28;20040;-71
2024/02/19 10:04:49;;;;;;;21.95;3.55;;;10.50;99.90;;;;;;5104571;28;20047;-71
2024/02/19 10:07:18;;;;;;;17.92;2.13;;;10.50;99.90;;;;;;5097989;28;20051;-71
2024/02/19 10:09:48;;;;;;;14.95;3.00;;;10.50;99.90;;;;;;5083922;28;20051;-71
2024/02/19 10:12:19;;;;;;;14.50;2.33;;;10.60;99.90;;;;;;5077504;28;20112;-70
2024/02/19 10:14:46;;;;;;;22.60;2.75;;;10.60;99.90;;;;;;5085977;28;20537;-69
2024/02/19 10:17:20;;;;;;;20.23;2.83;;;10.80;99.90;;;;;;5104874;28;20060;-70
2024/02/19 10:19:47;;;;;;;;;;;10.90;99.90;;;;;;5085937;28;20044;-71
2024/02/19 10:22:16;;;;;;;19.92;3.20;;;10.90;99.90;;;;;;5087620;28;19955;-71
2024/02/19 10:24:43;;;;;;;13.88;2.50;;;10.90;99.90;;;;;;5088614;28;20359;-69
2024/02/19 10:27:10;;;;;;;21.00;2.88;;;10.80;99.90;;;;;;5106019;28;20459;-71
2024/02/19 10:29:37;;;;;;;19.08;2.55;;;10.80;99.90;;;;;;5106233;28;20473;-70
2024/02/19 10:32:04;;;;;;;14.52;2.95;;;10.80;99.90;;;;;;5106079;28;20078;-70
2024/02/19 10:34:31;;;;;;;12.95;2.40;;;10.80;99.90;;;;;;5104959;28;20092;-71
2024/02/19 10:36:58;;;;;;;20.48;2.67;;;10.80;99.90;;;;;;5105904;28;20058;-71
2024/02/19 10:39:27;;;;;;;17.73;2.65;;;10.80;99.90;;;;;;5096997;28;20043;-70
2024/02/19 10:41:54;;;;;;;16.58;3.00;;;10.80;99.90;;;;;;5107151;28;20499;-70
2024/02/19 10:44:21;;;;;;;12.63;2.35;;;10.80;99.90;;;;;;5094639;28;20044;-69
2024/02/19 10:46:48;;;;;;;16.98;3.50;;;10.90;99.90;;;;;;5106928;28;20484;-71
2024/02/19 10:49:19;;;;;;;16.30;2.55;;;10.80;99.90;;;;;;5076194;28;20466;-71
2024/02/19 10:51:46;;;;;;;16.27;2.70;;;10.70;99.90;;;;;;5087122;28;20043;-71
2024/02/19 10:54:16;;;;;;;23.00;3.45;;;10.70;99.90;;;;;;5103715;28;20031;-71
2024/02/19 10:56:44;;;;;;;22.65;4.05;;;10.70;99.90;;;;;;5105918;28;20071;-72
2024/02/19 10:59:11;;;;;;;18.08;4.18;;;10.50;99.90;;;;;;5107695;28;20492;-72
2024/02/19 11:01:46;;;;;;;12.15;2.90;;;10.50;99.90;;;;;;5084605;28;20051;-72
2024/02/19 11:04:16;;;;;;;23.83;2.65;;;10.50;99.90;;;;;;5088697;28;20126;-71
2024/02/19 11:06:57;;;;;;;16.42;3.05;;;10.40;99.90;;;;;;5107007;28;20075;-73
2024/02/19 11:09:29;;;;;;;19.38;3.20;;;10.50;99.90;;;;;;5068111;28;20466;-71
2024/02/19 11:11:58;;;;;;;17.88;3.05;;;10.60;99.90;;;;;;5103164;28;20130;-72
2024/02/19 11:14:28;;;;;;;14.30;2.95;;;10.50;99.90;;;;;;5085371;28;20043;-71
2024/02/19 11:16:56;;;;;;;13.45;2.55;;;10.60;99.90;;;;;;5107877;28;20047;-72
2024/02/19 11:19:24;;;;;;;12.38;2.40;;;10.60;99.90;;;;;;5107607;28;20047;-71
2024/02/19 11:22:08;;;;;;;15.90;2.90;;;10.70;99.90;;;;;;5107535;28;20051;-69
2024/02/19 11:24:36;;;;;;;18.33;2.30;;;10.70;99.90;;;;;;5098540;28;20039;-71
2024/02/19 11:27:07;;;;;;;18.55;3.13;;;10.70;99.90;;;;;;5107680;28;20059;-71
2024/02/19 11:29:33;;;;;;;14.55;2.38;;;10.70;99.90;;;;;;5100729;28;20097;-73
2024/02/19 11:32:17;;;;;;;22.60;5.82;;;10.70;99.90;;;;;;5101390;28;20035;-75
2024/02/19 11:34:47;;;;;;;11.32;2.70;;;10.60;99.90;;;;;;5110746;28;20132;-73
2024/02/19 11:37:13;;;;;;;8.68;2.22;;;10.60;99.90;;;;;;5108400;28;20043;-72
2024/02/19 11:39:42;;;;;;;10.63;2.15;;;10.50;99.90;;;;;;5090142;28;20051;-71
2024/02/19 11:42:11;;;;;;;13.32;2.50;;;10.50;99.90;;;;;;5098106;28;20043;-71
2024/02/19 11:44:39;;;;;;;9.77;2.85;;;10.60;99.90;;;;;;5108344;28;20047;-72
2024/02/19 11:47:07;;;;;;;14.60;2.38;;;10.60;99.90;;;;;;5109969;28;20043;-72
2024/02/19 11:49:34;;;;;;;11.27;2.80;;;10.60;99.90;;;;;;5076853;28;20524;-73
2024/02/19 11:52:04;;;;;;;16.45;2.97;;;10.70;99.90;;;;;;5095695;28;20043;-71
2024/02/19 11:54:38;;;;;;;10.77;2.25;;;10.70;99.90;;;;;;5077090;28;20051;-70
2024/02/19 11:57:07;;;;;;;21.25;2.70;;;10.90;99.90;;;;;;5111045;28;20051;-70
2024/02/19 11:59:37;;;;;;;14.82;2.38;;;11.00;99.90;;;;;;5095013;28;20065;-72
2024/02/19 12:02:08;;;;;;;8.30;2.88;;;11.00;99.90;;;;;;5090105;28;20047;-72
2024/02/19 12:04:37;;;;;;;9.20;2.38;;;11.10;99.90;;;;;;5072945;28;20247;-71
2024/02/19 12:07:05;;;;;;;6.55;1.73;;;11.20;99.90;;;;;;5101383;28;20418;-71
2024/02/19 12:09:32;;;;;;;11.48;3.25;;;11.30;99.90;;;;;;5101094;28;20048;-72
2024/02/19 12:12:00;;;;;;;20.40;2.80;;;11.40;99.90;;;;;;5086820;28;20081;-72
2024/02/19 12:14:27;;;;;;;6.03;2.58;;;11.50;99.90;;;;;;5099735;28;20050;-71
2024/02/19 12:16:55;;;;;;;8.95;1.60;;;11.50;99.90;;;;;;5106241;28;20458;-71
2024/02/19 12:19:22;;;;;;;3.88;1.42;;;11.60;99.90;;;;;;5105259;28;20104;-71
2024/02/19 12:21:49;;;;;;;7.75;2.28;;;11.70;99.90;;;;;;5098379;28;20464;-70
2024/02/19 12:24:16;;;;;;;8.73;1.88;;;11.80;99.90;;;;;;5084576;28;20051;-70
2024/02/19 12:26:44;;;;;;;8.02;1.40;;;12.00;99.90;;;;;;5106923;28;20042;-72
2024/02/19 12:29:12;;;;;;;7.45;1.55;;;12.20;99.90;;;;;;5105804;28;20054;-71
2024/02/19 12:31:39;;;;;;;7.18;1.60;;;12.40;99.90;;;;;;5106813;28;20039;-72
2024/02/19 12:34:06;;;;;;;10.70;2.30;;;12.50;99.90;;;;;;5087517;28;20067;-70
2024/02/19 12:36:33;;;;;;;9.10;2.03;;;12.50;99.90;;;;;;5086790;28;20051;-71
2024/02/19 12:39:01;;;;;;;9.02;2.38;;;12.60;99.90;;;;;;5102517;28;20059;-71
2024/02/19 12:41:28;;;;;;;8.52;2.20;;;12.60;99.90;;;;;;5106580;28;20044;-71
2024/02/19 12:43:55;;;;;;;11.40;2.03;;;12.60;99.90;;;;;;5110604;28;20108;-71
2024/02/19 12:46:24;;;;;;;9.45;1.83;;;12.70;99.90;;;;;;5105412;28;20051;-70